sensor_id;sensor_type;location;lat;lon;timestamp;pressure;altitude;pressure_sealevel;temperature;humidity
34925;BME280;21130;51.728;8.748;2024-01-06T00:01:23;99063.78;;;4.91;100.00
34925;BME280;21130;51.728;8.748;2024-01-06T00:03:50;99062.63;;;4.87;100.00
34925;BME280;21130;51.728;8.748;2024-01-06T00:06:16;99058.09;;;4.81;100.00
34925;BME280;21130;51.728;8.748;2024-01-06T00:08:42;99065.16;;;4.76;100.00
34925;BME280;21130;51.728;8.748;2024-01-06T00:11:10;99081.78;;;4.70;100.00
34925;BME280;21130;51.728;8.748;2024-01-06T00:13:37;99086.19;;;4.71;100.00
34925;BME280;21130;51.728;8.748;2024-01-06T00:16:04;99082.28;;;4.67;100.00
34925;BME280;21130;51.728;8.748;2024-01-06T00:18:30;99101.38;;;4.62;100.00
34925;BME280;21130;51.728;8.748;2024-01-06T00:20:57;99104.03;;;4.57;100.00
34925;BME280;21130;51.728;8.748;2024-01-06T00:23:23;99109.38;;;4.63;100.00
34925;BME280;21130;51.728;8.748;2024-01-06T00:25:50;99102.44;;;4.61;100.00
34925;BME280;21130;51.728;8.748;2024-01-06T00:28:18;99108.53;;;4.63;100.00
34925;BME280;21130;51.728;8.748;2024-01-06T00:30:44;99109.88;;;4.60;100.00
34925;BME280;21130;51.728;8.748;2024-01-06T00:33:11;99109.63;;;4.62;100.00
34925;BME280;21130;51.728;8.748;2024-01-06T00:35:38;99124.31;;;4.55;100.00
34925;BME280;21130;51.728;8.748;2024-01-06T00:38:04;99122.28;;;4.51;100.00
34925;BME280;21130;51.728;8.748;2024-01-06T00:40:31;99119.78;;;4.49;100.00
34925;BME280;21130;51.728;8.748;2024-01-06T00:42:58;99120.84;;;4.60;100.00
34925;BME280;21130;51.728;8.748;2024-01-06T00:45:26;99126.00;;;4.57;100.00
34925;BME280;21130;51.728;8.748;2024-01-06T00:47:52;99131.00;;;4.60;100.00
34925;BME280;21130;51.728;8.748;2024-01-06T00:50:19;99128.97;;;4.55;100.00
34925;BME280;21130;51.728;8.748;2024-01-06T00:52:45;99133.66;;;4.54;100.00
34925;BME280;21130;51.728;8.748;2024-01-06T00:55:12;99130.28;;;4.52;100.00
34925;BME280;21130;51.728;8.748;2024-01-06T00:57:38;99133.38;;;4.56;100.00
34925;BME280;21130;51.728;8.748;2024-01-06T01:00:05;99131.13;;;4.53;100.00
34925;BME280;21130;51.728;8.748;2024-01-06T01:02:33;99131.72;;;4.55;100.00
34925;BME280;21130;51.728;8.748;2024-01-06T01:05:00;99134.13;;;4.51;100.00
34925;BME280;21130;51.728;8.748;2024-01-06T01:07:27;99132.66;;;4.49;100.00
34925;BME280;21130;51.728;8.748;2024-01-06T01:09:53;99131.38;;;4.51;100.00
34925;BME280;21130;51.728;8.748;2024-01-06T01:12:21;99139.75;;;4.57;100.00
34925;BME280;21130;51.728;8.748;2024-01-06T01:14:48;99140.56;;;4.45;100.00
34925;BME280;21130;51.728;8.748;2024-01-06T01:17:41;99148.94;;;4.50;100.00
34925;BME280;21130;51.728;8.748;2024-01-06T01:20:08;99155.72;;;4.48;100.00
34925;BME280;21130;51.728;8.748;2024-01-06T01:22:35;99149.41;;;4.47;100.00
34925;BME280;21130;51.728;8.748;2024-01-06T01:25:01;99156.56;;;4.48;100.00
34925;BME280;21130;51.728;8.748;2024-01-06T01:27:32;99158.38;;;4.43;100.00
34925;BME280;21130;51.728;8.748;2024-01-06T01:30:00;99161.81;;;4.38;100.00
34925;BME280;21130;51.728;8.748;2024-01-06T01:32:27;99164.22;;;4.35;100.00
34925;BME280;21130;51.728;8.748;2024-01-06T01:34:54;99172.09;;;4.43;100.00
34925;BME280;21130;51.728;8.748;2024-01-06T01:37:21;99174.00;;;4.42;100.00
34925;BME280;21130;51.728;8.748;2024-01-06T01:39:47;99179.13;;;4.39;100.00
34925;BME280;21130;51.728;8.748;2024-01-06T01:42:16;99173.88;;;4.37;100.00
34925;BME280;21130;51.728;8.748;2024-01-06T01:44:43;99174.72;;;4.38;100.00
34925;BME280;21130;51.728;8.748;2024-01-06T01:47:09;99182.13;;;4.49;100.00
34925;BME280;21130;51.728;8.748;2024-01-06T01:49:37;99182.25;;;4.42;100.00
34925;BME280;21130;51.728;8.748;2024-01-06T01:52:05;99181.88;;;4.39;100.00
34925;BME280;21130;51.728;8.748;2024-01-06T01:54:32;99177.81;;;4.41;100.00
34925;BME280;21130;51.728;8.748;2024-01-06T01:56:59;99189.53;;;4.48;100.00
34925;BME280;21130;51.728;8.748;2024-01-06T01:59:26;99185.47;;;4.39;100.00
34925;BME280;21130;51.728;8.748;2024-01-06T02:01:52;99185.47;;;4.51;100.00
34925;BME280;21130;51.728;8.748;2024-01-06T02:04:19;99183.59;;;4.51;100.00
34925;BME280;21130;51.728;8.748;2024-01-06T02:06:45;99184.75;;;4.44;100.00
34925;BME280;21130;51.728;8.748;2024-01-06T02:09:14;99181.53;;;4.47;100.00
34925;BME280;21130;51.728;8.748;2024-01-06T02:11:40;99175.66;;;4.43;100.00
34925;BME280;21130;51.728;8.748;2024-01-06T02:14:07;99180.69;;;4.46;100.00
34925;BME280;21130;51.728;8.748;2024-01-06T02:16:33;99183.44;;;4.46;100.00
34925;BME280;21130;51.728;8.748;2024-01-06T02:19:00;99190.34;;;4.49;100.00
34925;BME280;21130;51.728;8.748;2024-01-06T02:21:27;99176.97;;;4.41;100.00
34925;BME280;21130;51.728;8.748;2024-01-06T02:24:05;99177.94;;;4.46;100.00
34925;BME280;21130;51.728;8.748;2024-01-06T02:26:32;99184.88;;;4.49;100.00
34925;BME280;21130;51.728;8.748;2024-01-06T02:28:58;99191.09;;;4.44;100.00
34925;BME280;21130;51.728;8.748;2024-01-06T02:31:25;99190.84;;;4.46;100.00
34925;BME280;21130;51.728;8.748;2024-01-06T02:33:51;99190.38;;;4.37;100.00
34925;BME280;21130;51.728;8.748;2024-01-06T02:36:18;99196.66;;;4.26;100.00
34925;BME280;21130;51.728;8.748;2024-01-06T02:38:44;99200.03;;;4.28;100.00
34925;BME280;21130;51.728;8.748;2024-01-06T02:41:12;99200.28;;;4.26;100.00
34925;BME280;21130;51.728;8.748;2024-01-06T02:43:39;99195.72;;;4.20;100.00
34925;BME280;21130;51.728;8.748;2024-01-06T02:46:06;99192.13;;;4.20;100.00
34925;BME280;21130;51.728;8.748;2024-01-06T02:48:34;99192.97;;;4.20;100.00
34925;BME280;21130;51.728;8.748;2024-01-06T02:51:00;99201.19;;;4.20;100.00
34925;BME280;21130;51.728;8.748;2024-01-06T02:53:27;99195.34;;;4.17;100.00
34925;BME280;21130;51.728;8.748;2024-01-06T02:55:53;99199.63;;;4.13;100.00
34925;BME280;21130;51.728;8.748;2024-01-06T02:58:21;99204.28;;;4.12;100.00
34925;BME280;21130;51.728;8.748;2024-01-06T03:00:48;99214.44;;;4.11;100.00
34925;BME280;21130;51.728;8.748;2024-01-06T03:03:14;99212.16;;;4.08;100.00
34925;BME280;21130;51.728;8.748;2024-01-06T03:05:41;99210.25;;;4.09;100.00
34925;BME280;21130;51.728;8.748;2024-01-06T03:08:08;99218.50;;;4.09;100.00
34925;BME280;21130;51.728;8.748;2024-01-06T03:10:34;99209.25;;;4.03;100.00
34925;BME280;21130;51.728;8.748;2024-01-06T03:13:01;99209.53;;;4.02;100.00
34925;BME280;21130;51.728;8.748;2024-01-06T03:15:29;99221.53;;;4.01;100.00
34925;BME280;21130;51.728;8.748;2024-01-06T03:17:56;99209.75;;;4.00;100.00
34925;BME280;21130;51.728;8.748;2024-01-06T03:20:22;99207.59;;;4.02;100.00
34925;BME280;21130;51.728;8.748;2024-01-06T03:22:49;99206.28;;;4.05;100.00
34925;BME280;21130;51.728;8.748;2024-01-06T03:25:15;99209.97;;;3.99;100.00
34925;BME280;21130;51.728;8.748;2024-01-06T03:27:42;99214.00;;;3.96;100.00
34925;BME280;21130;51.728;8.748;2024-01-06T03:30:11;99215.69;;;3.97;100.00
34925;BME280;21130;51.728;8.748;2024-01-06T03:32:39;99216.91;;;4.01;100.00
34925;BME280;21130;51.728;8.748;2024-01-06T03:35:06;99217.13;;;4.00;100.00
34925;BME280;21130;51.728;8.748;2024-01-06T03:37:33;99219.41;;;4.03;100.00
34925;BME280;21130;51.728;8.748;2024-01-06T03:39:59;99220.25;;;4.03;100.00
34925;BME280;21130;51.728;8.748;2024-01-06T03:42:26;99219.06;;;3.99;100.00
34925;BME280;21130;51.728;8.748;2024-01-06T03:44:53;99225.47;;;3.93;100.00
34925;BME280;21130;51.728;8.748;2024-01-06T03:47:19;99222.09;;;3.91;100.00
34925;BME280;21130;51.728;8.748;2024-01-06T03:49:47;99232.72;;;3.87;100.00
34925;BME280;21130;51.728;8.748;2024-01-06T03:52:13;99239.06;;;3.88;100.00
34925;BME280;21130;51.728;8.748;2024-01-06T03:54:40;99240.88;;;3.94;100.00
34925;BME280;21130;51.728;8.748;2024-01-06T03:57:06;99239.88;;;3.88;100.00
34925;BME280;21130;51.728;8.748;2024-01-06T03:59:33;99249.66;;;3.84;100.00
34925;BME280;21130;51.728;8.748;2024-01-06T04:01:59;99249.34;;;3.93;100.00
34925;BME280;21130;51.728;8.748;2024-01-06T04:04:26;99258.41;;;3.93;100.00
34925;BME280;21130;51.728;8.748;2024-01-06T04:06:54;99252.56;;;3.89;100.00
34925;BME280;21130;51.728;8.748;2024-01-06T04:09:21;99258.88;;;3.90;100.00
34925;BME280;21130;51.728;8.748;2024-01-06T04:11:48;99258.94;;;3.83;100.00
34925;BME280;21130;51.728;8.748;2024-01-06T04:14:14;99265.19;;;3.90;100.00
34925;BME280;21130;51.728;8.748;2024-01-06T04:16:41;99265.19;;;3.90;100.00
34925;BME280;21130;51.728;8.748;2024-01-06T04:19:07;99260.84;;;4.01;100.00
34925;BME280;21130;51.728;8.748;2024-01-06T04:21:36;99260.09;;;3.94;100.00
34925;BME280;21130;51.728;8.748;2024-01-06T04:24:04;99268.06;;;3.96;100.00
34925;BME280;21130;51.728;8.748;2024-01-06T04:26:31;99266.56;;;4.00;100.00
34925;BME280;21130;51.728;8.748;2024-01-06T04:28:57;99267.84;;;3.97;100.00
34925;BME280;21130;51.728;8.748;2024-01-06T04:31:24;99267.16;;;4.02;100.00
34925;BME280;21130;51.728;8.748;2024-01-06T04:33:54;99268.91;;;3.96;100.00
34925;BME280;21130;51.728;8.748;2024-01-06T04:36:20;99276.69;;;3.99;100.00
34925;BME280;21130;51.728;8.748;2024-01-06T04:38:46;99286.88;;;4.10;100.00
34925;BME280;21130;51.728;8.748;2024-01-06T04:41:14;99283.78;;;4.07;100.00
34925;BME280;21130;51.728;8.748;2024-01-06T04:43:42;99270.66;;;4.09;100.00
34925;BME280;21130;51.728;8.748;2024-01-06T04:46:09;99285.09;;;4.04;100.00
34925;BME280;21130;51.728;8.748;2024-01-06T04:48:35;99287.22;;;4.02;100.00
34925;BME280;21130;51.728;8.748;2024-01-06T04:51:02;99279.72;;;4.09;100.00
34925;BME280;21130;51.728;8.748;2024-01-06T04:53:29;99278.97;;;4.02;100.00
34925;BME280;21130;51.728;8.748;2024-01-06T04:55:56;99288.44;;;4.06;100.00
34925;BME280;21130;51.728;8.748;2024-01-06T04:58:23;99291.75;;;4.08;100.00
34925;BME280;21130;51.728;8.748;2024-01-06T05:00:50;99291.75;;;4.08;100.00
34925;BME280;21130;51.728;8.748;2024-01-06T05:03:17;99290.84;;;4.15;100.00
34925;BME280;21130;51.728;8.748;2024-01-06T05:05:44;99296.47;;;4.20;100.00
34925;BME280;21130;51.728;8.748;2024-01-06T05:08:13;99300.13;;;4.14;100.00
34925;BME280;21130;51.728;8.748;2024-01-06T05:10:40;99305.19;;;4.17;100.00
34925;BME280;21130;51.728;8.748;2024-01-06T05:13:06;99307.47;;;4.20;100.00
34925;BME280;21130;51.728;8.748;2024-01-06T05:15:34;99304.94;;;4.18;100.00
34925;BME280;21130;51.728;8.748;2024-01-06T05:18:01;99309.50;;;4.24;100.00
34925;BME280;21130;51.728;8.748;2024-01-06T05:20:27;99309.59;;;4.18;100.00
34925;BME280;21130;51.728;8.748;2024-01-06T05:22:54;99313.56;;;4.22;100.00
34925;BME280;21130;51.728;8.748;2024-01-06T05:25:20;99310.97;;;4.27;100.00
34925;BME280;21130;51.728;8.748;2024-01-06T05:27:46;99322.91;;;4.32;100.00
34925;BME280;21130;51.728;8.748;2024-01-06T05:30:13;99324.56;;;4.33;100.00
34925;BME280;21130;51.728;8.748;2024-01-06T05:32:41;99324.13;;;4.37;100.00
34925;BME280;21130;51.728;8.748;2024-01-06T05:35:10;99324.56;;;4.33;100.00
34925;BME280;21130;51.728;8.748;2024-01-06T05:37:36;99335.81;;;4.32;100.00
34925;BME280;21130;51.728;8.748;2024-01-06T05:40:04;99333.44;;;4.36;100.00
34925;BME280;21130;51.728;8.748;2024-01-06T05:42:31;99337.88;;;4.37;100.00
34925;BME280;21130;51.728;8.748;2024-01-06T05:44:58;99335.13;;;4.37;100.00
34925;BME280;21130;51.728;8.748;2024-01-06T05:47:24;99337.47;;;4.33;100.00
34925;BME280;21130;51.728;8.748;2024-01-06T05:49:52;99342.97;;;4.33;100.00
34925;BME280;21130;51.728;8.748;2024-01-06T05:52:18;99345.09;;;4.31;100.00
34925;BME280;21130;51.728;8.748;2024-01-06T05:54:45;99347.09;;;4.24;100.00
34925;BME280;21130;51.728;8.748;2024-01-06T05:57:11;99350.47;;;4.26;100.00
34925;BME280;21130;51.728;8.748;2024-01-06T05:59:38;99356.56;;;4.28;100.00
34925;BME280;21130;51.728;8.748;2024-01-06T06:02:05;99361.38;;;4.32;100.00
34925;BME280;21130;51.728;8.748;2024-01-06T06:04:32;99358.41;;;4.34;100.00
34925;BME280;21130;51.728;8.748;2024-01-06T06:07:00;99355.72;;;4.27;100.00
34925;BME280;21130;51.728;8.748;2024-01-06T06:09:27;99362.06;;;4.28;100.00
34925;BME280;21130;51.728;8.748;2024-01-06T06:11:55;99363.97;;;4.27;100.00
34925;BME280;21130;51.728;8.748;2024-01-06T06:14:21;99376.25;;;4.25;100.00
34925;BME280;21130;51.728;8.748;2024-01-06T06:16:48;99384.34;;;4.20;100.00
34925;BME280;21130;51.728;8.748;2024-01-06T06:19:14;99380.06;;;4.24;100.00
34925;BME280;21130;51.728;8.748;2024-01-06T06:21:42;99385.19;;;4.20;100.00
34925;BME280;21130;51.728;8.748;2024-01-06T06:24:10;99390.31;;;4.17;100.00
34925;BME280;21130;51.728;8.748;2024-01-06T06:26:37;99388.00;;;4.14;100.00
34925;BME280;21130;51.728;8.748;2024-01-06T06:29:03;99395.41;;;4.13;100.00
34925;BME280;21130;51.728;8.748;2024-01-06T06:31:30;99389.63;;;4.03;100.00
34925;BME280;21130;51.728;8.748;2024-01-06T06:33:57;99383.63;;;3.94;100.00
34925;BME280;21130;51.728;8.748;2024-01-06T06:36:23;99399.94;;;3.89;100.00
34925;BME280;21130;51.728;8.748;2024-01-06T06:38:50;99405.03;;;3.85;100.00
34925;BME280;21130;51.728;8.748;2024-01-06T06:41:18;99403.81;;;3.81;100.00
34925;BME280;21130;51.728;8.748;2024-01-06T06:43:45;99420.28;;;3.81;100.00
34925;BME280;21130;51.728;8.748;2024-01-06T06:46:11;99414.88;;;3.75;100.00
34925;BME280;21130;51.728;8.748;2024-01-06T06:48:38;99417.41;;;3.76;100.00
34925;BME280;21130;51.728;8.748;2024-01-06T06:51:05;99417.59;;;3.75;100.00
34925;BME280;21130;51.728;8.748;2024-01-06T06:53:32;99420.19;;;3.70;100.00
34925;BME280;21130;51.728;8.748;2024-01-06T06:55:58;99428.25;;;3.64;100.00
34925;BME280;21130;51.728;8.748;2024-01-06T06:58:26;99432.84;;;3.71;100.00
34925;BME280;21130;51.728;8.748;2024-01-06T07:00:52;99439.25;;;3.64;100.00
34925;BME280;21130;51.728;8.748;2024-01-06T07:03:19;99438.63;;;3.62;100.00
34925;BME280;21130;51.728;8.748;2024-01-06T07:05:46;99438.16;;;3.65;100.00
34925;BME280;21130;51.728;8.748;2024-01-06T07:08:12;99445.94;;;3.68;100.00
34925;BME280;21130;51.728;8.748;2024-01-06T07:10:40;99453.59;;;3.66;100.00
34925;BME280;21130;51.728;8.748;2024-01-06T07:13:06;99452.97;;;3.64;100.00
34925;BME280;21130;51.728;8.748;2024-01-06T07:15:35;99460.13;;;3.65;100.00
34925;BME280;21130;51.728;8.748;2024-01-06T07:18:01;99460.94;;;3.66;100.00
34925;BME280;21130;51.728;8.748;2024-01-06T07:20:27;99466.84;;;3.70;100.00
34925;BME280;21130;51.728;8.748;2024-01-06T07:22:54;99464.31;;;3.68;100.00
34925;BME280;21130;51.728;8.748;2024-01-06T07:25:20;99484.34;;;3.68;100.00
34925;BME280;21130;51.728;8.748;2024-01-06T07:27:47;99479.94;;;3.67;100.00
34925;BME280;21130;51.728;8.748;2024-01-06T07:30:14;99488.47;;;3.59;100.00
34925;BME280;21130;51.728;8.748;2024-01-06T07:32:43;99490.81;;;3.56;100.00
34925;BME280;21130;51.728;8.748;2024-01-06T07:35:10;99492.94;;;3.54;100.00
34925;BME280;21130;51.728;8.748;2024-01-06T07:37:36;99498.66;;;3.52;100.00
34925;BME280;21130;51.728;8.748;2024-01-06T07:40:03;99497.16;;;3.56;100.00
34925;BME280;21130;51.728;8.748;2024-01-06T07:42:30;99499.91;;;3.56;100.00
34925;BME280;21130;51.728;8.748;2024-01-06T07:44:56;99498.53;;;3.65;100.00
34925;BME280;21130;51.728;8.748;2024-01-06T07:47:23;99504.47;;;3.62;100.00
34925;BME280;21130;51.728;8.748;2024-01-06T07:49:51;99516.34;;;3.56;100.00
34925;BME280;21130;51.728;8.748;2024-01-06T07:52:18;99514.44;;;3.57;100.00
34925;BME280;21130;51.728;8.748;2024-01-06T07:54:44;99520.97;;;3.56;100.00
34925;BME280;21130;51.728;8.748;2024-01-06T07:57:11;99516.94;;;3.58;100.00
34925;BME280;21130;51.728;8.748;2024-01-06T07:59:38;99516.94;;;3.58;100.00
34925;BME280;21130;51.728;8.748;2024-01-06T08:02:05;99530.91;;;3.57;100.00
34925;BME280;21130;51.728;8.748;2024-01-06T08:04:32;99528.16;;;3.57;100.00
34925;BME280;21130;51.728;8.748;2024-01-06T08:07:00;99534.88;;;3.61;100.00
34925;BME280;21130;51.728;8.748;2024-01-06T08:09:26;99536.06;;;3.72;100.00
34925;BME280;21130;51.728;8.748;2024-01-06T08:11:54;99536.44;;;3.75;100.00
34925;BME280;21130;51.728;8.748;2024-01-06T08:14:21;99536.72;;;3.67;100.00
34925;BME280;21130;51.728;8.748;2024-01-06T08:16:48;99540.47;;;3.73;100.00
34925;BME280;21130;51.728;8.748;2024-01-06T08:19:14;99549.50;;;3.80;100.00
34925;BME280;21130;51.728;8.748;2024-01-06T08:21:41;99557.94;;;3.78;100.00
34925;BME280;21130;51.728;8.748;2024-01-06T08:24:09;99561.25;;;3.87;100.00
34925;BME280;21130;51.728;8.748;2024-01-06T08:26:35;99568.84;;;3.92;100.00
34925;BME280;21130;51.728;8.748;2024-01-06T08:29:02;99565.00;;;3.93;100.00
34925;BME280;21130;51.728;8.748;2024-01-06T08:31:29;99570.53;;;3.86;100.00
34925;BME280;21130;51.728;8.748;2024-01-06T08:33:55;99561.25;;;3.87;100.00
34925;BME280;21130;51.728;8.748;2024-01-06T08:36:24;99560.19;;;3.88;100.00
34925;BME280;21130;51.728;8.748;2024-01-06T08:38:50;99564.28;;;3.79;100.00
34925;BME280;21130;51.728;8.748;2024-01-06T08:41:18;99585.19;;;3.80;100.00
34925;BME280;21130;51.728;8.748;2024-01-06T08:43:45;99580.75;;;3.79;100.00
34925;BME280;21130;51.728;8.748;2024-01-06T08:46:11;99587.00;;;3.86;100.00
34925;BME280;21130;51.728;8.748;2024-01-06T08:48:38;99589.50;;;3.94;100.00
34925;BME280;21130;51.728;8.748;2024-01-06T08:51:04;99603.28;;;3.87;100.00
34925;BME280;21130;51.728;8.748;2024-01-06T08:53:31;99599.28;;;3.83;100.00
34925;BME280;21130;51.728;8.748;2024-01-06T08:55:57;99607.97;;;3.80;100.00
34925;BME280;21130;51.728;8.748;2024-01-06T08:58:25;99616.81;;;3.82;100.00
34925;BME280;21130;51.728;8.748;2024-01-06T09:00:52;99623.44;;;3.75;100.00
34925;BME280;21130;51.728;8.748;2024-01-06T09:03:19;99628.56;;;3.64;100.00
34925;BME280;21130;51.728;8.748;2024-01-06T09:05:50;99633.88;;;3.59;100.00
34925;BME280;21130;51.728;8.748;2024-01-06T09:08:17;99636.69;;;3.46;100.00
34925;BME280;21130;51.728;8.748;2024-01-06T09:16:59;99661.06;;;3.29;100.00
34925;BME280;21130;51.728;8.748;2024-01-06T09:19:25;99662.34;;;3.27;100.00
34925;BME280;21130;51.728;8.748;2024-01-06T09:21:53;99670.56;;;3.27;100.00
34925;BME280;21130;51.728;8.748;2024-01-06T09:24:20;99672.66;;;3.24;100.00
34925;BME280;21130;51.728;8.748;2024-01-06T09:26:46;99674.16;;;3.20;100.00
34925;BME280;21130;51.728;8.748;2024-01-06T09:29:13;99679.88;;;3.12;100.00
34925;BME280;21130;51.728;8.748;2024-01-06T09:31:41;99681.56;;;3.13;100.00
34925;BME280;21130;51.728;8.748;2024-01-06T09:34:10;99687.47;;;3.17;100.00
34925;BME280;21130;51.728;8.748;2024-01-06T09:36:37;99682.63;;;3.19;100.00
34925;BME280;21130;51.728;8.748;2024-01-06T09:39:04;99689.97;;;3.18;100.00
34925;BME280;21130;51.728;8.748;2024-01-06T09:41:33;99696.53;;;3.17;100.00
34925;BME280;21130;51.728;8.748;2024-01-06T09:44:00;99692.97;;;3.10;100.00
34925;BME280;21130;51.728;8.748;2024-01-06T09:46:28;99699.06;;;3.12;100.00
34925;BME280;21130;51.728;8.748;2024-01-06T09:48:56;99708.00;;;3.01;100.00
34925;BME280;21130;51.728;8.748;2024-01-06T09:51:25;99709.84;;;3.00;100.00
34925;BME280;21130;51.728;8.748;2024-01-06T09:53:56;99712.63;;;2.94;100.00
34925;BME280;21130;51.728;8.748;2024-01-06T09:56:24;99722.34;;;2.90;100.00
34925;BME280;21130;51.728;8.748;2024-01-06T09:58:51;99719.19;;;2.79;100.00
34925;BME280;21130;51.728;8.748;2024-01-06T10:01:17;99719.63;;;2.76;100.00
34925;BME280;21130;51.728;8.748;2024-01-06T10:03:44;99719.41;;;2.78;100.00
34925;BME280;21130;51.728;8.748;2024-01-06T10:06:11;99715.19;;;2.75;100.00
34925;BME280;21130;51.728;8.748;2024-01-06T10:08:42;99720.03;;;2.73;100.00
34925;BME280;21130;51.728;8.748;2024-01-06T10:11:08;99723.00;;;2.72;100.00
34925;BME280;21130;51.728;8.748;2024-01-06T10:13:36;99722.81;;;2.67;100.00
34925;BME280;21130;51.728;8.748;2024-01-06T10:16:03;99723.44;;;2.69;100.00
34925;BME280;21130;51.728;8.748;2024-01-06T10:18:30;99724.91;;;2.71;100.00
34925;BME280;21130;51.728;8.748;2024-01-06T10:20:58;99735.63;;;2.79;100.00
34925;BME280;21130;51.728;8.748;2024-01-06T10:23:26;99737.09;;;2.75;100.00
34925;BME280;21130;51.728;8.748;2024-01-06T10:25:55;99739.44;;;2.72;100.00
34925;BME280;21130;51.728;8.748;2024-01-06T10:28:22;99742.38;;;2.70;100.00
34925;BME280;21130;51.728;8.748;2024-01-06T10:30:50;99750.41;;;2.72;100.00
34925;BME280;21130;51.728;8.748;2024-01-06T10:33:18;99743.44;;;2.63;100.00
34925;BME280;21130;51.728;8.748;2024-01-06T10:35:45;99739.88;;;2.62;100.00
34925;BME280;21130;51.728;8.748;2024-01-06T10:38:11;99744.72;;;2.60;100.00
34925;BME280;21130;51.728;8.748;2024-01-06T10:40:40;99741.97;;;2.60;100.00
34925;BME280;21130;51.728;8.748;2024-01-06T10:43:09;99749.56;;;2.51;100.00
34925;BME280;21130;51.728;8.748;2024-01-06T10:45:36;99754.19;;;2.57;100.00
34925;BME280;21130;51.728;8.748;2024-01-06T10:48:05;99752.94;;;2.60;100.00
34925;BME280;21130;51.728;8.748;2024-01-06T10:50:32;99749.13;;;2.68;100.00
34925;BME280;21130;51.728;8.748;2024-01-06T10:53:00;99753.56;;;2.62;100.00
34925;BME280;21130;51.728;8.748;2024-01-06T10:55:29;99755.03;;;2.65;100.00
34925;BME280;21130;51.728;8.748;2024-01-06T10:57:56;99754.63;;;2.74;100.00
34925;BME280;21130;51.728;8.748;2024-01-06T11:00:24;99751.69;;;2.76;100.00
34925;BME280;21130;51.728;8.748;2024-01-06T11:02:51;99757.56;;;2.86;100.00
34925;BME280;21130;51.728;8.748;2024-01-06T11:05:19;99758.00;;;2.76;100.00
34925;BME280;21130;51.728;8.748;2024-01-06T11:07:46;99760.69;;;2.83;100.00
34925;BME280;21130;51.728;8.748;2024-01-06T11:22:44;99749.34;;;2.79;100.00
34925;BME280;21130;51.728;8.748;2024-01-06T11:25:14;99750.41;;;2.78;100.00
34925;BME280;21130;51.728;8.748;2024-01-06T11:27:43;99753.34;;;2.70;100.00
34925;BME280;21130;51.728;8.748;2024-01-06T11:30:19;99755.03;;;2.58;100.00
34925;BME280;21130;51.728;8.748;2024-01-06T11:32:46;99749.97;;;2.55;100.00
34925;BME280;21130;51.728;8.748;2024-01-06T11:35:14;99756.94;;;2.57;100.00
34925;BME280;21130;51.728;8.748;2024-01-06T11:37:55;99766.84;;;2.52;100.00
34925;BME280;21130;51.728;8.748;2024-01-06T11:40:33;99763.25;;;2.38;100.00
34925;BME280;21130;51.728;8.748;2024-01-06T11:43:02;99767.28;;;2.49;100.00
34925;BME280;21130;51.728;8.748;2024-01-06T11:45:30;99772.53;;;2.44;100.00
34925;BME280;21130;51.728;8.748;2024-01-06T11:47:59;99770.63;;;2.31;100.00
34925;BME280;21130;51.728;8.748;2024-01-06T11:50:27;99777.38;;;2.35;100.00
34925;BME280;21130;51.728;8.748;2024-01-06T11:52:55;99776.94;;;2.31;100.00
34925;BME280;21130;51.728;8.748;2024-01-06T11:55:22;99774.00;;;2.33;100.00
34925;BME280;21130;51.728;8.748;2024-01-06T11:57:49;99774.44;;;2.36;100.00
34925;BME280;21130;51.728;8.748;2024-01-06T12:00:16;99770.00;;;2.35;100.00
34925;BME280;21130;51.728;8.748;2024-01-06T12:02:43;99774.41;;;2.30;100.00
34925;BME280;21130;51.728;8.748;2024-01-06T12:05:13;99772.53;;;2.24;100.00
34925;BME280;21130;51.728;8.748;2024-01-06T12:07:43;99785.59;;;2.28;100.00
34925;BME280;21130;51.728;8.748;2024-01-06T12:10:11;99781.13;;;2.14;100.00
34925;BME280;21130;51.728;8.748;2024-01-06T12:12:39;99783.88;;;2.14;100.00
34925;BME280;21130;51.728;8.748;2024-01-06T12:15:06;99777.75;;;2.12;100.00
34925;BME280;21130;51.728;8.748;2024-01-06T12:17:35;99782.59;;;2.03;100.00
34925;BME280;21130;51.728;8.748;2024-01-06T12:20:02;99779.84;;;2.10;100.00
34925;BME280;21130;51.728;8.748;2024-01-06T12:22:30;99787.88;;;2.18;100.00
34925;BME280;21130;51.728;8.748;2024-01-06T12:24:58;99788.06;;;2.10;100.00
34925;BME280;21130;51.728;8.748;2024-01-06T12:27:26;99789.53;;;2.12;100.00
34925;BME280;21130;51.728;8.748;2024-01-06T12:29:52;99787.84;;;2.05;100.00
34925;BME280;21130;51.728;8.748;2024-01-06T12:32:19;99787.44;;;2.08;100.00
34925;BME280;21130;51.728;8.748;2024-01-06T12:34:46;99781.56;;;2.11;100.00
34925;BME280;21130;51.728;8.748;2024-01-06T12:37:13;99788.28;;;2.15;100.00
34925;BME280;21130;51.728;8.748;2024-01-06T12:39:40;99787.66;;;2.13;100.00
34925;BME280;21130;51.728;8.748;2024-01-06T12:42:07;99782.16;;;2.13;100.00
34925;BME280;21130;51.728;8.748;2024-01-06T12:44:35;99784.50;;;2.16;100.00
34925;BME280;21130;51.728;8.748;2024-01-06T12:47:04;99781.56;;;2.17;100.00
34925;BME280;21130;51.728;8.748;2024-01-06T12:49:31;99783.22;;;2.12;100.00
34925;BME280;21130;51.728;8.748;2024-01-06T12:51:57;99784.91;;;2.13;100.00
34925;BME280;21130;51.728;8.748;2024-01-06T12:54:24;99787.22;;;2.09;100.00
34925;BME280;21130;51.728;8.748;2024-01-06T12:56:50;99795.88;;;2.06;100.00
34925;BME280;21130;51.728;8.748;2024-01-06T12:59:17;99797.75;;;2.06;100.00
34925;BME280;21130;51.728;8.748;2024-01-06T13:01:45;99803.00;;;2.07;100.00
34925;BME280;21130;51.728;8.748;2024-01-06T13:04:12;99804.72;;;2.08;100.00
34925;BME280;21130;51.728;8.748;2024-01-06T13:06:38;99809.97;;;2.03;100.00
34925;BME280;21130;51.728;8.748;2024-01-06T13:09:05;99815.84;;;2.07;100.00
34925;BME280;21130;51.728;8.748;2024-01-06T13:11:34;99811.84;;;2.03;100.00
34925;BME280;21130;51.728;8.748;2024-01-06T13:14:03;99816.09;;;2.12;100.00
34925;BME280;21130;51.728;8.748;2024-01-06T13:16:30;99822.81;;;2.09;100.00
34925;BME280;21130;51.728;8.748;2024-01-06T13:18:57;99822.41;;;2.06;100.00